Time;durP1;ratioP1;P1;durP2;ratioP2;P2;SDS_P1;SDS_P2;PMS_P1;PMS_P2;Temp;Humidity;BMP_temperature;BMP_pressure;BME280_temperature;BME280_humidity;BME280_pressure;Samples;Min_cycle;Max_cycle;Signal;HPM_P1;HPM_P2
2022/07/27 00:12:49;;;;;;;;;3.40;3.40;;;;;18.17;100.00;101540.03;4966441;23;44756;-93
2022/07/27 00:38:51;;;;;;;;;5.00;5.00;;;;;17.88;100.00;101531.78;4548424;26;45233;-90
2022/07/27 00:41:36;;;;;;;;;3.80;3.80;;;;;17.91;100.00;101534.22;4950080;28;45201;-91
2022/07/27 00:44:13;;;;;;;;;10.40;5.40;;;;;17.83;100.00;101539.38;4963376;28;44845;-91
2022/07/27 00:46:39;;;;;;;;;4.80;4.20;;;;;17.75;100.00;101541.88;4957688;28;44648;-89
2022/07/27 00:49:05;;;;;;;;;5.25;4.25;;;;;17.73;100.00;101536.63;4956257;28;44860;-89
2022/07/27 00:51:31;;;;;;;;;4.00;4.00;;;;;17.65;100.00;101537.25;4950825;28;46642;-89
2022/07/27 00:54:00;;;;;;;;;5.00;5.00;;;;;17.62;100.00;101542.03;4946580;28;44607;-89
2022/07/27 00:56:29;;;;;;;;;4.80;4.00;;;;;17.63;100.00;101541.03;4947472;28;44844;-90
2022/07/27 00:58:57;;;;;;;;;4.80;3.80;;;;;17.65;100.00;101531.03;4948780;28;45292;-90
2022/07/27 01:01:25;;;;;;;;;6.00;5.00;;;;;17.59;100.00;101536.88;4948041;28;46810;-90
2022/07/27 01:03:56;;;;;;;;;8.20;5.20;;;;;17.48;100.00;101530.59;4952157;28;44817;-88
2022/07/27 01:06:22;;;;;;;;;4.00;4.00;;;;;17.50;100.00;101527.75;4947252;28;44686;-89
2022/07/27 01:08:48;;;;;;;;;4.75;4.50;;;;;17.47;100.00;101526.19;4946935;28;44876;-89
2022/07/27 01:11:13;;;;;;;;;0.50;0.50;;;;;17.51;100.00;101528.63;4946231;28;47150;-89
2022/07/27 01:13:41;;;;;;;;;4.00;4.00;;;;;17.52;100.00;101525.81;4948286;28;45354;-89
2022/07/27 01:19:22;;;;;;;;;5.00;4.00;;;;;17.38;100.00;101528.78;5484537;23;46067;-89
2022/07/27 01:21:48;;;;;;;;;6.50;5.00;;;;;17.39;100.00;101527.81;4893721;29;45899;-90
2022/07/27 01:24:16;;;;;;;;;8.75;4.25;;;;;17.39;100.00;101525.97;4889788;29;45302;-89
2022/07/27 01:26:42;;;;;;;;;5.00;4.00;;;;;17.34;100.00;101511.22;4908240;29;44695;-90
2022/07/27 01:29:08;;;;;;;;;4.25;3.50;;;;;17.36;100.00;101523.56;4893787;29;44851;-91
2022/07/27 01:31:34;;;;;;;;;9.00;5.00;;;;;17.33;100.00;101529.19;4896755;29;46707;-91
2022/07/27 01:33:59;;;;;;;;;3.25;3.25;;;;;17.32;100.00;101518.56;4904772;29;44791;-90
2022/07/27 01:40:32;;;;;;;;;6.75;4.50;;;;;17.29;100.00;101511.59;4919711;29;44580;-93
2022/07/27 01:53:09;;;;;;;;;4.50;4.50;;;;;17.21;100.00;101530.19;4915992;29;44677;-90
2022/07/27 01:55:53;;;;;;;;;3.40;2.00;;;;;17.17;100.00;101520.69;4906997;29;45174;-90
2022/07/27 01:58:48;;;;;;;;;3.00;3.00;;;;;17.18;100.00;101523.25;4898529;29;44604;-90
2022/07/27 02:01:34;;;;;;;;;8.40;5.40;;;;;17.14;100.00;101519.09;4879808;28;44923;-89
2022/07/27 02:04:43;;;;;;;;;7.50;5.25;;;;;17.07;100.00;101507.16;4909991;28;44910;-90
2022/07/27 02:07:29;;;;;;;;;5.00;5.00;;;;;17.09;100.00;101513.25;4909649;28;45063;-91
2022/07/27 02:10:30;;;;;;;;;4.60;4.60;;;;;17.08;100.00;101513.38;4924273;28;44789;-90
2022/07/27 02:13:45;;;;;;;;;5.00;5.00;;;;;17.07;100.00;101517.91;4851666;29;44823;-90
2022/07/27 02:23:11;;;;;;;;;5.80;4.80;;;;;16.88;100.00;101499.75;4851867;29;44704;-90
2022/07/27 02:59:22;;;;;;;;;8.25;5.00;;;;;16.56;100.00;101526.47;5083634;23;45600;-91
2022/07/27 03:02:17;;;;;;;;;6.75;4.25;;;;;16.56;100.00;101521.09;4896484;29;45209;-92
2022/07/27 03:04:47;;;;;;;;;8.20;5.60;;;;;16.55;100.00;101515.88;4926384;28;44682;-92
2022/07/27 03:13:11;;;;;;;;;4.80;4.80;;;;;16.48;100.00;101517.31;4116427;26;45149;-93
2022/07/27 03:15:50;;;;;;;;;3.40;3.00;;;;;16.47;100.00;101513.78;4920672;28;44641;-91
2022/07/27 03:18:26;;;;;;;;;4.20;4.20;;;;;16.38;100.00;101515.34;4917220;28;44781;-92
2022/07/27 03:21:03;;;;;;;;;4.50;4.50;;;;;16.38;100.00;101515.34;4907259;28;44903;-92
2022/07/27 03:23:40;;;;;;;;;7.60;3.40;;;;;16.38;100.00;101512.66;4919609;28;45115;-91
2022/07/27 03:26:17;;;;;;;;;7.40;4.40;;;;;16.32;100.00;101506.94;4905833;28;44640;-91
2022/07/27 03:29:01;;;;;;;;;7.40;4.60;;;;;16.33;100.00;101508.66;4923358;28;44852;-91
2022/07/27 03:32:20;;;;;;;;;9.50;6.75;;;;;16.29;100.00;101516.06;4942136;28;44852;-92
2022/07/27 03:51:22;;;;;;;;;10.00;7.00;;;;;16.18;100.00;101502.66;3744442;26;45125;-91
2022/07/27 05:21:54;;;;;;;;;8.75;4.25;;;;;17.71;100.00;101504.47;746030;23;45207;-94
2022/07/27 05:24:25;;;;;;;;;3.20;3.20;;;;;17.78;100.00;101502.13;4907947;29;44849;-92
2022/07/27 05:26:54;;;;;;;;;3.40;3.40;;;;;17.88;100.00;101500.38;4894242;29;44594;-93
2022/07/27 05:29:22;;;;;;;;;5.60;3.00;;;;;18.11;100.00;101501.06;4894133;29;44996;-93
2022/07/27 05:31:51;;;;;;;;;6.20;4.40;;;;;18.22;100.00;101505.53;4913068;29;45262;-93
2022/07/27 05:34:30;;;;;;;;;4.20;2.00;;;;;18.21;100.00;101507.34;4916850;29;44752;-94
2022/07/27 05:39:32;;;;;;;;;9.00;5.00;;;;;18.26;100.00;101506.97;5007414;23;45129;-92
2022/07/27 05:42:03;;;;;;;;;5.00;2.00;;;;;18.35;100.00;101505.31;4922803;28;44940;-93
2022/07/27 05:44:29;;;;;;;;;5.00;3.00;;;;;18.38;100.00;101507.75;4905921;28;44863;-93
2022/07/27 05:46:56;;;;;;;;;2.40;2.40;;;;;18.58;100.00;101512.22;4917926;29;44706;-93
2022/07/27 05:50:00;;;;;;;;;3.20;3.00;;;;;18.86;100.00;101502.56;4887696;29;44991;-93
2022/07/27 05:52:26;;;;;;;;;2.00;2.00;;;;;18.92;100.00;101512.78;4901096;29;46655;-92
2022/07/27 05:54:56;;;;;;;;;3.00;3.00;;;;;18.91;100.00;101510.25;4899841;29;44660;-93
2022/07/27 05:57:24;;;;;;;;;2.60;2.60;;;;;18.91;100.00;101502.16;4917323;29;44790;-91
2022/07/27 06:00:00;;;;;;;;;3.60;3.60;;;;;18.87;100.00;101504.28;4901524;29;45416;-93
2022/07/27 06:02:31;;;;;;;;;4.00;3.60;;;;;18.98;100.00;101506.00;4870583;29;45442;-92
2022/07/27 06:05:02;;;;;;;;;3.00;1.00;;;;;19.00;100.00;101507.56;4889056;29;44650;-92
2022/07/27 06:10:25;;;;;;;;;3.00;3.00;;;;;18.95;100.00;101517.91;4904002;29;44578;-92
2022/07/27 06:12:55;;;;;;;;;5.00;2.40;;;;;19.07;100.00;101520.47;4895389;29;45030;-91
2022/07/27 06:15:35;;;;;;;;;5.00;4.40;;;;;19.03;100.00;101525.28;4912353;29;44822;-92
2022/07/27 06:18:03;;;;;;;;;6.60;3.00;;;;;19.05;100.00;101523.31;4900578;29;44637;-93
2022/07/27 06:20:30;;;;;;;;;3.20;3.20;;;;;19.09;100.00;101532.78;4903987;29;44937;-91
2022/07/27 06:22:59;;;;;;;;;5.40;2.00;;;;;19.20;100.00;101523.78;4905727;29;45144;-92
2022/07/27 06:25:25;;;;;;;;;1.40;0.60;;;;;19.28;100.00;101526.59;4903136;28;44678;-93
2022/07/27 06:27:52;;;;;;;;;3.00;3.00;;;;;19.25;100.00;101525.03;4912480;28;44753;-93
2022/07/27 06:30:21;;;;;;;;;3.40;2.60;;;;;19.41;100.00;101529.03;4929077;28;44893;-93
2022/07/27 06:32:48;;;;;;;;;2.80;2.60;;;;;19.62;100.00;101531.63;4912130;28;46674;-93
2022/07/27 06:35:23;;;;;;;;;4.20;3.20;;;;;19.87;100.00;101535.56;4922552;28;44683;-94
2022/07/27 06:37:53;;;;;;;;;3.60;3.00;;;;;20.18;100.00;101523.59;4898609;29;44677;-93
2022/07/27 06:40:27;;;;;;;;;2.00;2.00;;;;;20.43;100.00;101519.41;4916115;28;44928;-93
2022/07/27 06:43:16;;;;;;;;;3.20;2.60;;;;;20.56;100.00;101521.81;4914694;28;45602;-94
2022/07/27 06:46:11;;;;;;;;;5.20;4.00;;;;;20.69;100.00;101522.28;4915191;29;44777;-94
2022/07/27 06:48:41;;;;;;;;;5.60;3.00;;;;;20.90;100.00;101522.06;4885978;29;44868;-94
2022/07/27 06:51:11;;;;;;;;;3.60;3.00;;;;;20.95;100.00;101511.66;4897958;29;44884;-94
2022/07/27 07:00:34;;;;;;;;;5.20;3.00;;;;;21.54;100.00;101526.47;4923531;28;44741;-95
2022/07/27 07:03:10;;;;;;;;;3.40;3.00;;;;;21.73;100.00;101516.50;4918226;29;44861;-94
2022/07/27 07:05:49;;;;;;;;;3.60;3.60;;;;;21.94;100.00;101524.28;4919550;29;45258;-95
2022/07/27 07:10:53;;;;;;;;;3.40;3.20;;;;;22.17;100.00;101527.34;4929716;23;44813;-93
2022/07/27 07:13:19;;;;;;;;;4.00;4.00;;;;;22.16;100.00;101523.81;4914426;29;44876;-94
2022/07/27 07:15:47;;;;;;;;;2.20;2.20;;;;;21.91;100.00;101530.88;4915617;29;45100;-94
2022/07/27 07:18:16;;;;;;;;;5.80;3.40;;;;;22.02;100.00;101527.91;4898231;29;44728;-94
2022/07/27 07:23:55;;;;;;;;;7.00;5.00;;;;;22.25;100.00;101532.84;4915071;29;44588;-95
2022/07/27 07:26:22;;;;;;;;;4.20;4.20;;;;;22.27;100.00;101526.22;4901069;29;45248;-94
2022/07/27 07:28:48;;;;;;;;;4.20;4.20;;;;;22.35;100.00;101524.59;4893731;29;44722;-94
2022/07/27 07:31:13;;;;;;;;;8.75;6.00;;;;;22.30;100.00;101531.34;4892385;29;44789;-94
2022/07/27 07:33:39;;;;;;;;;6.00;5.75;;;;;22.06;100.00;101529.28;4909531;29;44834;-94
2022/07/27 07:36:05;;;;;;;;;8.50;5.25;;;;;22.01;100.00;101530.78;4915871;29;45042;-92
2022/07/27 07:38:30;;;;;;;;;5.00;4.00;;;;;21.86;100.00;101525.06;4903595;29;44711;-92
2022/07/27 07:40:56;;;;;;;;;4.75;4.50;;;;;21.74;100.00;101529.03;4903922;29;44734;-93
2022/07/27 07:43:21;;;;;;;;;6.00;6.00;;;;;21.69;100.00;101540.31;4917101;29;44863;-92
2022/07/27 07:45:49;;;;;;;;;12.20;11.60;;;;;21.77;100.00;101534.13;4919207;29;45474;-93
2022/07/27 07:48:15;;;;;;;;;11.60;6.40;;;;;21.97;100.00;101527.53;4885241;29;44595;-93
2022/07/27 07:50:40;;;;;;;;;5.00;5.00;;;;;22.07;100.00;101520.16;4901607;29;44636;-92
2022/07/27 07:53:07;;;;;;;;;6.75;6.75;;;;;22.20;100.00;101529.75;4902571;29;44820;-92
2022/07/27 07:55:33;;;;;;;;;4.80;4.80;;;;;22.20;100.00;101527.88;4902458;29;45338;-93
2022/07/27 07:57:58;;;;;;;;;14.00;11.75;;;;;22.13;100.00;101528.69;4901643;29;44714;-94
2022/07/27 08:00:24;;;;;;;;;8.75;6.75;;;;;22.01;100.00;101531.63;4903453;29;44829;-92
2022/07/27 08:02:54;;;;;;;;;30.00;26.25;;;;;21.83;100.00;101528.09;4907318;29;44975;-93
2022/07/27 08:05:21;;;;;;;;;29.25;25.00;;;;;21.60;100.00;101527.72;4911788;29;45166;-94
2022/07/27 08:07:52;;;;;;;;;9.40;7.80;;;;;21.61;100.00;101525.84;4913603;28;44884;-91
2022/07/27 08:13:13;;;;;;;;;5.20;5.20;;;;;21.65;100.00;101519.13;5216119;23;45209;-93
2022/07/27 08:15:40;;;;;;;;;9.60;6.80;;;;;21.67;100.00;101517.16;4913409;29;45252;-94
2022/07/27 08:18:08;;;;;;;;;10.00;10.00;;;;;21.64;100.00;101509.34;4908555;29;44950;-94
2022/07/27 08:20:35;;;;;;;;;30.50;21.00;;;;;21.73;100.00;101516.50;4887510;29;44704;-94
2022/07/27 08:23:03;;;;;;;;;18.75;16.00;;;;;21.72;100.00;101518.38;4916986;29;44922;-94
2022/07/27 08:25:36;;;;;;;;;10.60;9.20;;;;;21.63;100.00;101521.16;4898945;29;45251;-95
2022/07/27 08:28:03;;;;;;;;;20.00;15.80;;;;;21.67;100.00;101531.50;4909326;29;44589;-94
2022/07/27 08:30:29;;;;;;;;;8.40;6.60;;;;;21.49;100.00;101518.00;4926551;28;44620;-95
2022/07/27 08:32:59;;;;;;;;;8.80;8.80;;;;;21.53;100.00;101518.53;4910682;29;45243;-94
2022/07/27 08:35:28;;;;;;;;;12.20;11.40;;;;;21.46;100.00;101522.84;4928135;29;45236;-94
2022/07/27 08:38:05;;;;;;;;;6.00;6.00;;;;;21.43;100.00;101524.03;4928075;28;44676;-94
2022/07/27 08:40:33;;;;;;;;;10.00;9.60;;;;;21.52;100.00;101511.44;4922705;28;44718;-94
2022/07/27 08:45:36;;;;;;;;;12.00;10.40;;;;;21.76;100.00;101516.22;4915782;28;45244;-90
2022/07/27 08:48:03;;;;;;;;;10.80;9.20;;;;;21.54;100.00;101512.13;4917984;29;44826;-91
2022/07/27 08:50:36;;;;;;;;;9.40;8.80;;;;;21.59;100.00;101511.66;4925018;28;44729;-93
2022/07/27 08:53:12;;;;;;;;;12.00;12.00;;;;;21.74;100.00;101513.63;4930558;28;44701;-94
2022/07/27 08:55:43;;;;;;;;;10.40;8.20;;;;;21.75;100.00;101518.03;4912649;28;45231;-93
2022/07/27 08:58:14;;;;;;;;;5.00;5.00;;;;;21.80;100.00;101512.16;4928560;28;44696;-94
2022/07/27 09:00:50;;;;;;;;;5.20;5.20;;;;;21.72;100.00;101510.25;4912977;28;44865;-94
2022/07/27 09:03:22;;;;;;;;;7.40;7.40;;;;;22.03;100.00;101509.81;4913969;28;44885;-93
2022/07/27 09:05:51;;;;;;;;;12.00;11.60;;;;;22.24;100.00;101501.31;4959450;23;45063;-93
2022/07/27 09:08:21;;;;;;;;;21.20;20.00;;;;;22.26;100.00;101521.84;4932668;28;44824;-94
2022/07/27 09:10:47;;;;;;;;;11.40;8.80;;;;;22.18;100.00;101524.47;4933863;28;44727;-94
2022/07/27 09:13:28;;;;;;;;;11.25;10.25;;;;;22.21;100.00;101515.22;4932430;28;44935;-93
2022/07/27 09:16:07;;;;;;;;;7.40;5.80;;;;;22.09;100.00;101506.44;5224013;23;46380;-95
2022/07/27 09:18:37;;;;;;;;;16.20;7.20;;;;;22.24;100.00;101510.34;4938892;28;44785;-93
2022/07/27 09:21:25;;;;;;;;;9.60;7.60;;;;;22.27;100.00;101512.69;4942874;28;44777;-93
2022/07/27 09:24:39;;;;;;;;;21.00;13.25;;;;;22.66;100.00;101516.78;4956710;28;44788;-94
2022/07/27 09:27:07;;;;;;;;;9.60;7.40;;;;;23.02;100.00;101512.06;4941014;28;45160;-94
2022/07/27 09:29:36;;;;;;;;;6.20;3.20;;;;;23.25;100.00;101514.97;4941309;28;44612;-94
2022/07/27 09:32:15;;;;;;;;;4.40;4.40;;;;;23.57;100.00;101517.75;4958292;28;44697;-93
2022/07/27 09:37:32;;;;;;;;;11.60;10.00;;;;;23.92;100.00;101523.88;4953272;23;45119;-94
2022/07/27 09:40:24;;;;;;;;;5.00;5.00;;;;;24.16;100.00;101514.00;4908707;28;44894;-94
2022/07/27 09:43:23;;;;;;;;;15.80;12.60;;;;;24.02;100.00;101516.38;4942778;28;44710;-93
2022/07/27 09:45:52;;;;;;;;;17.80;12.60;;;;;23.99;100.00;101514.03;4910557;28;45811;-93
2022/07/27 09:48:28;;;;;;;;;8.40;7.00;;;;;23.69;100.00;101523.72;4911328;29;45350;-93
2022/07/27 09:56:12;;;;;;;;;11.75;10.75;;;;;23.06;100.00;101508.84;2179115;23;45251;-92
2022/07/27 09:58:55;;;;;;;;;7.40;5.80;;;;;23.06;100.00;101522.41;4891835;29;44975;-94
2022/07/27 10:01:28;;;;;;;;;15.40;14.20;;;;;23.00;100.00;101514.91;4891194;29;44576;-92
2022/07/27 10:03:59;;;;;;;;;37.50;30.75;;;;;23.05;100.00;101515.25;4905158;29;44754;-93
2022/07/27 10:06:27;;;;;;;;;14.25;11.75;;;;;22.83;100.00;101499.59;4906757;29;44892;-93
2022/07/27 10:08:54;;;;;;;;;6.40;5.00;;;;;22.56;100.00;101503.38;4903295;29;45245;-89
2022/07/27 10:16:53;;;;;;;;;33.75;25.75;;;;;23.20;100.00;101512.75;4907855;29;46723;-93
2022/07/27 10:19:40;;;;;;;;;6.60;6.60;;;;;23.47;100.00;101497.22;4910048;29;45016;-93
2022/07/27 10:22:12;;;;;;;;;6.00;5.40;;;;;23.80;99.06;101506.25;4895567;29;44776;-93
2022/07/27 10:27:47;;;;;;;;;6.60;5.80;;;;;24.45;95.88;101497.16;4913607;29;44659;-93
2022/07/27 10:30:51;;;;;;;;;7.20;6.00;;;;;24.10;95.30;101496.53;4910769;29;45344;-93
2022/07/27 10:33:46;;;;;;;;;7.00;5.20;;;;;23.72;96.80;101495.38;4909263;29;45422;-93
2022/07/27 10:36:35;;;;;;;;;4.20;3.60;;;;;23.84;96.09;101492.16;4899439;29;44759;-93
2022/07/27 10:39:04;;;;;;;;;4.40;3.80;;;;;24.22;95.43;101489.69;4865557;29;44816;-93
2022/07/27 10:41:40;;;;;;;;;14.60;9.40;;;;;24.29;96.16;101498.88;4854014;29;45249;-93
2022/07/27 10:44:17;;;;;;;;;11.20;8.60;;;;;24.18;93.62;101499.25;4846677;29;44741;-92
2022/07/27 10:46:45;;;;;;;;;7.00;7.00;;;;;23.70;93.45;101494.72;4828135;29;44788;-90
2022/07/27 10:49:20;;;;;;;;;6.20;5.00;;;;;23.68;92.38;101483.19;4833139;29;44907;-89
2022/07/27 10:51:46;;;;;;;;;5.60;5.60;;;;;23.41;94.24;101489.75;4814984;29;45373;-90
2022/07/27 10:54:32;;;;;;;;;6.60;5.40;;;;;23.32;91.52;101491.63;4835862;29;44673;-93
2022/07/27 10:57:02;;;;;;;;;7.00;7.00;;;;;23.34;96.37;101476.00;4837833;29;44765;-93
2022/07/27 10:59:44;;;;;;;;;12.20;8.40;;;;;23.24;95.56;101481.59;4823406;29;44762;-90
2022/07/27 11:02:13;;;;;;;;;13.00;9.40;;;;;23.43;97.05;101477.72;4840457;29;45007;-89
2022/07/27 11:04:51;;;;;;;;;13.00;9.00;;;;;23.57;92.97;101476.19;4840541;29;45461;-91
2022/07/27 11:07:23;;;;;;;;;7.20;6.40;;;;;23.77;92.01;101480.28;4841797;29;44590;-92
2022/07/27 11:09:51;;;;;;;;;6.00;6.00;;;;;23.97;92.18;101466.34;4846097;29;44829;-92
2022/07/27 11:12:18;;;;;;;;;4.60;3.80;;;;;24.11;92.74;101455.63;4828231;29;45470;-94
2022/07/27 11:14:52;;;;;;;;;10.80;6.40;;;;;24.24;89.38;101468.66;4836825;29;45612;-94
2022/07/27 11:17:25;;;;;;;;;9.00;9.00;;;;;24.47;86.16;101463.38;4921690;29;44694;-93
2022/07/27 11:19:59;;;;;;;;;5.60;4.20;;;;;24.57;84.60;101460.44;4904996;29;44814;-94
2022/07/27 11:22:38;;;;;;;;;4.00;3.00;;;;;24.90;85.20;101463.84;4914947;29;45021;-92
2022/07/27 11:25:07;;;;;;;;;5.80;5.80;;;;;25.23;83.63;101450.03;4922912;28;44761;-93
2022/07/27 11:27:50;;;;;;;;;12.40;11.00;;;;;25.46;83.75;101447.31;4924725;28;44765;-93
2022/07/27 11:30:29;;;;;;;;;10.00;8.40;;;;;25.72;78.42;101453.19;4936634;28;44856;-94
2022/07/27 11:33:00;;;;;;;;;24.00;15.00;;;;;25.61;83.10;101451.75;4920092;29;45051;-94
2022/07/27 11:35:28;;;;;;;;;8.60;8.60;;;;;25.50;85.09;101438.59;4918384;29;44832;-94
2022/07/27 11:38:04;;;;;;;;;12.40;10.60;;;;;25.71;79.51;101448.78;4914184;29;45280;-93
2022/07/27 11:41:09;;;;;;;;;6.80;5.60;;;;;25.64;76.63;101443.25;4916726;29;44889;-93
2022/07/27 11:43:41;;;;;;;;;4.20;3.60;;;;;25.48;80.22;101446.13;4914841;28;45349;-94
2022/07/27 11:46:18;;;;;;;;;4.20;4.20;;;;;25.28;81.18;101442.19;4911296;29;44767;-92
2022/07/27 12:00:40;;;;;;;;;2.80;2.80;;;;;26.04;77.04;101438.44;4990997;23;45103;-92
2022/07/27 12:03:06;;;;;;;;;1.80;1.80;;;;;26.28;73.45;101445.47;4903111;29;44925;-92
2022/07/27 12:05:32;;;;;;;;;3.40;2.20;;;;;26.38;68.91;101423.41;4905580;29;45275;-92
2022/07/27 12:07:58;;;;;;;;;4.00;4.00;;;;;26.62;70.04;101434.00;4917818;29;44632;-93
2022/07/27 12:10:26;;;;;;;;;2.25;2.25;;;;;26.77;72.31;101433.13;4900113;29;44592;-92
2022/07/27 12:12:52;;;;;;;;;4.00;4.00;;;;;26.68;64.04;101429.66;4900971;29;44862;-92
2022/07/27 12:15:19;;;;;;;;;3.80;3.60;;;;;26.11;62.30;101438.56;4916875;29;45408;-90
2022/07/27 12:17:54;;;;;;;;;4.80;4.80;;;;;25.72;66.55;101433.28;4899079;29;44706;-93
2022/07/27 12:20:23;;;;;;;;;3.40;3.40;;;;;26.04;68.67;101426.69;4903718;29;44775;-92
2022/07/27 12:22:51;;;;;;;;;2.20;2.00;;;;;26.19;66.95;101426.69;4907046;29;44813;-92
2022/07/27 12:25:39;;;;;;;;;1.80;1.80;;;;;26.69;65.56;101425.94;4906905;29;45420;-92
2022/07/27 12:28:14;;;;;;;;;3.20;3.20;;;;;27.06;65.50;101413.09;4825764;29;44809;-91
2022/07/27 12:30:45;;;;;;;;;3.40;2.60;;;;;27.37;62.52;101421.00;4839687;29;44790;-92
2022/07/27 12:33:30;;;;;;;;;2.60;2.60;;;;;27.52;57.52;101415.44;4842302;29;44839;-92
2022/07/27 12:35:58;;;;;;;;;1.80;1.80;;;;;27.55;60.41;101412.31;4840129;29;45326;-92
2022/07/27 12:38:35;;;;;;;;;3.80;3.00;;;;;27.59;54.53;101408.13;4812424;29;44916;-92
2022/07/27 12:41:02;;;;;;;;;3.80;3.60;;;;;27.61;59.02;101396.00;4830910;29;44779;-92
2022/07/27 12:43:31;;;;;;;;;2.80;2.00;;;;;27.68;54.07;101410.53;4850731;29;45551;-91
2022/07/27 12:45:56;;;;;;;;;6.00;2.80;;;;;27.26;57.27;101402.41;4835052;29;44993;-92
2022/07/27 12:48:29;;;;;;;;;1.25;1.25;;;;;27.14;56.99;101407.56;4839049;29;44693;-92
2022/07/27 12:51:04;;;;;;;;;5.20;5.20;;;;;26.94;60.41;101390.97;4823615;29;44666;-93
2022/07/27 12:53:33;;;;;;;;;2.00;2.00;;;;;26.41;57.18;101401.22;4823055;29;44822;-93
2022/07/27 12:56:04;;;;;;;;;3.40;1.60;;;;;26.17;59.97;101394.22;4823972;29;45220;-93
2022/07/27 12:58:31;;;;;;;;;0.20;0.00;;;;;26.09;61.19;101394.31;4842041;29;44667;-92
2022/07/27 13:00:57;;;;;;;;;2.60;2.00;;;;;26.07;62.16;101385.50;4853918;29;44622;-93
2022/07/27 13:03:23;;;;;;;;;2.00;2.00;;;;;26.01;60.36;101378.88;4824479;29;45029;-94
2022/07/27 13:05:48;;;;;;;;;1.25;1.00;;;;;26.29;58.47;101389.97;4868241;28;45229;-92
2022/07/27 13:08:16;;;;;;;;;0.60;0.60;;;;;26.75;55.78;101375.25;4915588;28;44804;-93
2022/07/27 13:10:46;;;;;;;;;2.00;2.00;;;;;26.90;58.10;101385.03;4888173;28;44801;-92
2022/07/27 13:13:12;;;;;;;;;2.20;1.60;;;;;26.67;57.01;101378.91;4923936;28;44824;-93
2022/07/27 13:15:37;;;;;;;;;1.25;1.25;;;;;26.69;55.56;101368.69;4928698;28;46803;-93
2022/07/27 13:18:03;;;;;;;;;2.75;2.00;;;;;26.79;53.95;101360.19;4928343;28;44752;-93
2022/07/27 13:20:29;;;;;;;;;7.50;6.50;;;;;26.86;54.96;101361.09;4918811;28;44731;-94
2022/07/27 13:22:58;;;;;;;;;1.00;1.00;;;;;26.78;54.29;101366.66;4936661;28;44838;-93
2022/07/27 13:25:30;;;;;;;;;2.00;2.00;;;;;26.55;55.60;101356.78;4899793;28;45491;-93
2022/07/27 13:28:00;;;;;;;;;1.00;1.00;;;;;26.54;53.68;101362.41;4915689;28;44776;-92
2022/07/27 13:33:51;;;;;;;;;0.40;0.40;;;;;26.68;53.92;101357.94;4920059;28;44642;-92
2022/07/27 13:36:17;;;;;;;;;4.00;1.40;;;;;27.09;51.28;101363.66;4935192;28;45189;-92
2022/07/27 13:38:44;;;;;;;;;2.00;2.00;;;;;27.52;51.55;101339.84;4919404;28;44784;-91
2022/07/27 13:41:10;;;;;;;;;2.40;1.00;;;;;28.40;50.72;101348.34;4918262;28;44799;-92
2022/07/27 13:43:36;;;;;;;;;3.00;1.00;;;;;29.16;48.29;101346.19;4915504;28;44822;-93
2022/07/27 13:46:07;;;;;;;;;1.00;1.00;;;;;29.58;45.83;101337.75;4897787;28;45428;-93
2022/07/27 13:48:34;;;;;;;;;2.00;2.00;;;;;29.69;44.56;101339.88;4915650;28;44576;-93
2022/07/27 13:51:03;;;;;;;;;2.00;2.00;;;;;30.02;42.73;101337.00;4900001;28;44913;-93
2022/07/27 13:53:29;;;;;;;;;1.80;1.80;;;;;30.55;41.27;101341.41;4916384;28;44852;-93
2022/07/27 13:55:56;;;;;;;;;3.00;1.00;;;;;31.05;41.31;101336.06;4912760;28;45161;-93
2022/07/27 13:58:25;;;;;;;;;2.80;1.00;;;;;31.64;40.33;101331.94;4910643;28;44764;-93
2022/07/27 14:00:55;;;;;;;;;2.40;1.40;;;;;31.66;37.97;101329.78;4919671;28;44745;-93
2022/07/27 14:03:22;;;;;;;;;1.80;0.20;;;;;31.77;44.79;101329.06;4898554;29;44949;-93
2022/07/27 14:05:48;;;;;;;;;1.00;1.00;;;;;31.42;43.21;101315.88;4895027;29;45339;-94
2022/07/27 14:08:14;;;;;;;;;3.60;0.80;;;;;30.71;41.24;101339.03;4881946;29;44827;-94
2022/07/27 14:10:41;;;;;;;;;1.00;1.00;;;;;30.55;38.22;101341.41;4865012;29;44809;-93
2022/07/27 14:13:14;;;;;;;;;1.00;1.00;;;;;30.75;38.08;101325.69;4913928;29;44933;-94
2022/07/27 14:15:46;;;;;;;;;0.40;0.40;;;;;30.85;46.87;101312.34;4894773;29;45025;-93
2022/07/27 14:18:12;;;;;;;;;1.00;1.00;;;;;31.36;38.58;101330.53;4892737;29;44617;-92
2022/07/27 14:20:45;;;;;;;;;1.00;1.00;;;;;32.28;38.12;101319.56;4881499;29;44700;-93
2022/07/27 14:23:11;;;;;;;;;1.20;1.20;;;;;33.15;35.87;101324.63;4900157;29;44912;-92
2022/07/27 14:25:45;;;;;;;;;1.75;1.00;;;;;33.19;33.92;101318.41;4900553;29;45155;-92
2022/07/27 14:28:11;;;;;;;;;1.00;1.00;;;;;33.37;36.86;101317.47;4899232;29;44743;-93
2022/07/27 14:33:12;;;;;;;;;0.00;0.00;;;;;31.99;32.50;101324.78;5394118;23;46472;-94
2022/07/27 14:35:43;;;;;;;;;2.25;1.00;;;;;31.12;35.32;101318.47;4914248;29;45035;-94
2022/07/27 14:38:20;;;;;;;;;1.00;1.00;;;;;30.72;35.19;101312.44;4902308;29;44584;-94
2022/07/27 14:40:54;;;;;;;;;3.20;2.00;;;;;30.46;36.36;101305.19;4886092;29;44599;-94
2022/07/27 14:43:21;;;;;;;;;1.00;1.00;;;;;30.07;36.39;101303.47;4885459;29;44948;-94
2022/07/27 14:45:51;;;;;;;;;0.80;0.80;;;;;29.86;36.18;101299.97;4879733;29;45546;-93
2022/07/27 14:48:27;;;;;;;;;0.00;0.00;;;;;29.59;38.48;101299.22;4896646;29;44863;-94
2022/07/27 14:51:18;;;;;;;;;1.80;1.60;;;;;29.35;36.23;101302.59;4902488;29;44804;-94
2022/07/27 14:53:44;;;;;;;;;3.00;1.00;;;;;29.34;39.72;101303.66;4896109;28;44797;-94
2022/07/27 14:56:13;;;;;;;;;2.00;1.00;;;;;29.29;36.63;101300.69;4911900;29;45254;-94
2022/07/27 14:58:41;;;;;;;;;1.20;0.60;;;;;29.31;36.36;101301.34;4876491;29;44686;-94
2022/07/27 15:01:07;;;;;;;;;3.20;3.20;;;;;29.49;36.08;101300.66;4912812;29;44641;-94
2022/07/27 15:03:41;;;;;;;;;3.00;1.80;;;;;29.80;35.62;101292.63;4902992;29;44899;-95
2022/07/27 15:06:28;;;;;;;;;1.00;1.00;;;;;30.45;35.35;101289.78;4887965;29;45028;-94
2022/07/27 15:17:46;;;;;;;;;0.00;0.00;;;;;31.15;33.35;101278.75;5137846;23;45040;-91
2022/07/27 15:58:20;;;;;;;;;1.00;1.00;;;;;29.65;35.55;101243.59;4172190;23;45289;-93
2022/07/27 16:05:00;;;;;;;;;0.80;0.80;;;;;29.39;34.87;101241.72;4869964;28;44848;-95
2022/07/27 16:08:02;;;;;;;;;0.00;0.00;;;;;29.37;34.21;101232.06;5066302;23;45673;-93
2022/07/27 16:14:10;;;;;;;;;1.00;1.00;;;;;29.65;34.04;101227.16;5348756;23;44791;-90
2022/07/27 16:16:35;;;;;;;;;1.00;1.00;;;;;30.18;33.90;101224.19;4948212;28;45035;-91
2022/07/27 16:19:01;;;;;;;;;0.00;0.00;;;;;30.51;32.87;101219.50;4947704;28;44633;-91
2022/07/27 16:31:47;;;;;;;;;0.60;0.60;;;;;29.87;34.80;101222.19;4941714;23;45097;-90
2022/07/27 16:49:44;;;;;;;;;0.20;0.20;;;;;26.83;37.98;101206.03;5512744;23;45817;-93
2022/07/27 16:52:12;;;;;;;;;1.00;1.00;;;;;26.67;38.87;101203.63;4929649;28;44766;-94
2022/07/27 16:54:43;;;;;;;;;1.00;1.00;;;;;26.72;38.78;101203.88;4942179;28;44819;-94
2022/07/27 16:57:10;;;;;;;;;1.00;1.00;;;;;26.75;38.36;101201.59;4938017;28;45025;-94
2022/07/27 16:59:37;;;;;;;;;1.20;1.00;;;;;26.71;38.75;101194.00;4937544;28;44764;-94
2022/07/27 17:02:07;;;;;;;;;1.00;1.00;;;;;26.80;39.60;101195.56;4940616;28;44671;-95
2022/07/27 17:04:33;;;;;;;;;0.00;0.00;;;;;26.92;39.60;101207.59;5195858;23;45110;-94
2022/07/27 17:07:02;;;;;;;;;1.00;1.00;;;;;26.85;38.32;101191.19;4905618;29;46552;-93
2022/07/27 17:09:28;;;;;;;;;0.00;0.00;;;;;26.83;38.26;101195.97;4922507;29;44636;-92
2022/07/27 17:11:55;;;;;;;;;0.00;0.00;;;;;26.86;38.35;101189.28;4918880;29;44689;-93
2022/07/27 17:14:24;;;;;;;;;1.00;1.00;;;;;27.00;39.71;101192.97;4900104;29;44878;-92
2022/07/27 17:16:52;;;;;;;;;2.00;0.00;;;;;26.91;39.04;101198.56;4918221;29;45305;-93
2022/07/27 17:19:20;;;;;;;;;0.00;0.00;;;;;27.14;38.49;101173.78;4918277;29;44691;-94
2022/07/27 17:21:46;;;;;;;;;0.00;0.00;;;;;27.65;37.31;101183.47;4918187;29;44730;-94
2022/07/27 17:24:15;;;;;;;;;0.80;0.00;;;;;27.84;36.94;101176.41;4895431;29;44987;-93